Összefoglaló Pér: 

VentuSky:

Felhőkép magyaroszág: 

 

 

Keresés

Felhőkép 

Felhőkép

Széltérkép

Széltérkép

Győr-Pér Repülőtér

Élő webkamera kép

 Nagyobb kép

Győr-Pér Repülőtér

[Source: ADDS]
METAR
LHPR 200245Z AUTO VRB01KT CAVOK 12/11 Q1021 RMK BLU =
LHPR 191715Z 1918/2003 VRB03KT CAVOK
TAF
LHPR 191715Z 1918/2003 VRB03KT CAVOK =
SR / SS: 04:33 / 16:50 UTC (Napkelte / Napnyugta 2018-09-20)

Kapcsolat

Telephely:     9099 Pér, Repülõtér

Klubhelyiség: 9021 Gyõr, Városház tér 3.

E-mail: info@aeroclub-gyor.hu

Telefon: 06-20-777-9106

Adószám: 19113832-2-08

  
Joomla űrlapépítő by JoomlaShine
JSN Metro template designed by JoomlaShine.com